sensor_id;sensor_type;location;lat;lon;timestamp;pressure;altitude;pressure_sealevel;temperature;humidity
9009;BME280;62813;51.424;6.762;2023-01-27T00:00:32;102086.00;;;4.02;83.32
9009;BME280;62813;51.424;6.762;2023-01-27T00:02:59;102084.25;;;3.99;83.30
9009;BME280;62813;51.424;6.762;2023-01-27T00:05:25;102085.94;;;3.98;83.00
9009;BME280;62813;51.424;6.762;2023-01-27T00:07:52;102095.34;;;3.95;83.44
9009;BME280;62813;51.424;6.762;2023-01-27T00:10:19;102085.09;;;3.95;83.17
9009;BME280;62813;51.424;6.762;2023-01-27T00:12:46;102080.75;;;3.92;83.40
9009;BME280;62813;51.424;6.762;2023-01-27T00:15:33;102083.31;;;3.89;82.89
9009;BME280;62813;51.424;6.762;2023-01-27T00:18:00;102083.34;;;3.94;83.21
9009;BME280;62813;51.424;6.762;2023-01-27T00:20:27;102083.31;;;3.92;83.37
9009;BME280;62813;51.424;6.762;2023-01-27T00:23:15;102087.59;;;3.90;82.90
9009;BME280;62813;51.424;6.762;2023-01-27T00:26:02;102091.91;;;3.93;83.48
9009;BME280;62813;51.424;6.762;2023-01-27T00:28:35;102092.75;;;3.90;83.40
9009;BME280;62813;51.424;6.762;2023-01-27T00:31:03;102086.78;;;3.96;82.88
9009;BME280;62813;51.424;6.762;2023-01-27T00:33:31;102091.94;;;3.97;83.22
9009;BME280;62813;51.424;6.762;2023-01-27T00:35:59;102097.06;;;3.97;83.04
9009;BME280;62813;51.424;6.762;2023-01-27T00:38:27;102094.50;;;3.97;82.79
9009;BME280;62813;51.424;6.762;2023-01-27T00:40:54;102096.22;;;3.98;82.76
9009;BME280;62813;51.424;6.762;2023-01-27T00:43:40;102094.50;;;3.94;83.39
9009;BME280;62813;51.424;6.762;2023-01-27T00:46:06;102091.03;;;3.92;83.24
9009;BME280;62813;51.424;6.762;2023-01-27T00:48:34;102094.50;;;3.96;83.16
9009;BME280;62813;51.424;6.762;2023-01-27T00:51:00;102089.38;;;3.94;82.46
9009;BME280;62813;51.424;6.762;2023-01-27T00:53:27;102105.59;;;3.92;82.70
9009;BME280;62813;51.424;6.762;2023-01-27T00:55:54;102096.19;;;3.94;82.11
9009;BME280;62813;51.424;6.762;2023-01-27T00:58:20;102093.69;;;4.02;81.78
9009;BME280;62813;51.424;6.762;2023-01-27T01:00:47;102091.94;;;3.96;82.06
9009;BME280;62813;51.424;6.762;2023-01-27T01:03:14;102093.59;;;3.94;82.17
9009;BME280;62813;51.424;6.762;2023-01-27T01:05:41;102094.50;;;3.94;82.42
9009;BME280;62813;51.424;6.762;2023-01-27T01:08:08;102087.66;;;3.96;82.51
9009;BME280;62813;51.424;6.762;2023-01-27T01:10:36;102103.06;;;3.96;82.65
9009;BME280;62813;51.424;6.762;2023-01-27T01:13:04;102094.50;;;3.97;82.71
9009;BME280;62813;51.424;6.762;2023-01-27T01:15:37;102100.50;;;3.98;82.75
9009;BME280;62813;51.424;6.762;2023-01-27T01:18:05;102106.50;;;3.95;82.80
9009;BME280;62813;51.424;6.762;2023-01-27T01:20:38;102110.72;;;3.93;83.03
9009;BME280;62813;51.424;6.762;2023-01-27T01:23:05;102123.56;;;3.93;82.90
9009;BME280;62813;51.424;6.762;2023-01-27T01:25:33;102113.28;;;3.92;83.25
9009;BME280;62813;51.424;6.762;2023-01-27T01:28:00;102121.00;;;3.90;83.49
9009;BME280;62813;51.424;6.762;2023-01-27T01:30:27;102119.28;;;3.89;83.71
9009;BME280;62813;51.424;6.762;2023-01-27T01:32:54;102118.41;;;3.87;83.38
9009;BME280;62813;51.424;6.762;2023-01-27T01:35:21;102126.13;;;3.87;83.61
9009;BME280;62813;51.424;6.762;2023-01-27T01:37:51;102127.81;;;3.87;83.36
9009;BME280;62813;51.424;6.762;2023-01-27T01:40:18;102128.69;;;3.90;83.33
9009;BME280;62813;51.424;6.762;2023-01-27T01:48:05;102135.53;;;3.88;83.65
9009;BME280;62813;51.424;6.762;2023-01-27T01:50:36;102140.66;;;3.87;83.92
9009;BME280;62813;51.424;6.762;2023-01-27T01:53:05;102134.69;;;3.88;83.63
9009;BME280;62813;51.424;6.762;2023-01-27T01:55:33;102132.97;;;3.88;83.94
9009;BME280;62813;51.424;6.762;2023-01-27T01:58:00;102136.41;;;3.87;83.88
9009;BME280;62813;51.424;6.762;2023-01-27T02:00:27;102135.50;;;3.85;84.30
9009;BME280;62813;51.424;6.762;2023-01-27T02:02:54;102138.06;;;3.87;83.49
9009;BME280;62813;51.424;6.762;2023-01-27T02:05:25;102138.06;;;3.84;83.42
9009;BME280;62813;51.424;6.762;2023-01-27T02:08:15;102152.63;;;3.85;83.04
9009;BME280;62813;51.424;6.762;2023-01-27T02:10:45;102139.75;;;3.82;82.72
9009;BME280;62813;51.424;6.762;2023-01-27T02:13:11;102143.19;;;3.81;82.92
9009;BME280;62813;51.424;6.762;2023-01-27T02:15:38;102137.19;;;3.80;82.83
9009;BME280;62813;51.424;6.762;2023-01-27T02:18:05;102139.72;;;3.79;82.95
9009;BME280;62813;51.424;6.762;2023-01-27T02:20:58;102141.41;;;3.77;83.27
9009;BME280;62813;51.424;6.762;2023-01-27T02:26:22;102135.44;;;3.78;82.97
9009;BME280;62813;51.424;6.762;2023-01-27T02:29:05;102145.69;;;3.75;83.09
9009;BME280;62813;51.424;6.762;2023-01-27T02:31:32;102147.41;;;3.74;82.93
9009;BME280;62813;51.424;6.762;2023-01-27T02:34:06;102147.34;;;3.71;83.39
9009;BME280;62813;51.424;6.762;2023-01-27T02:36:40;102152.50;;;3.71;83.22
9009;BME280;62813;51.424;6.762;2023-01-27T02:39:09;102154.22;;;3.72;83.55
9009;BME280;62813;51.424;6.762;2023-01-27T02:41:56;102152.53;;;3.74;84.11
9009;BME280;62813;51.424;6.762;2023-01-27T02:44:23;102160.19;;;3.68;84.56
9009;BME280;62813;51.424;6.762;2023-01-27T02:46:50;102162.75;;;3.68;84.49
9009;BME280;62813;51.424;6.762;2023-01-27T02:49:16;102161.81;;;3.61;85.14
9009;BME280;62813;51.424;6.762;2023-01-27T02:51:43;102165.16;;;3.53;85.65
9009;BME280;62813;51.424;6.762;2023-01-27T02:54:09;102174.50;;;3.48;85.59
9009;BME280;62813;51.424;6.762;2023-01-27T02:56:36;102174.44;;;3.44;85.71
9009;BME280;62813;51.424;6.762;2023-01-27T02:59:03;102176.13;;;3.39;84.98
9009;BME280;62813;51.424;6.762;2023-01-27T03:01:29;102168.44;;;3.41;84.42
9009;BME280;62813;51.424;6.762;2023-01-27T03:03:58;102173.50;;;3.36;84.51
9009;BME280;62813;51.424;6.762;2023-01-27T03:06:25;102180.34;;;3.36;84.53
9009;BME280;62813;51.424;6.762;2023-01-27T03:08:51;102171.81;;;3.37;84.30
9009;BME280;62813;51.424;6.762;2023-01-27T03:11:18;102177.84;;;3.40;84.39
9009;BME280;62813;51.424;6.762;2023-01-27T03:14:08;102175.28;;;3.40;84.73
9009;BME280;62813;51.424;6.762;2023-01-27T03:16:34;102175.28;;;3.39;84.32
9009;BME280;62813;51.424;6.762;2023-01-27T03:19:19;102177.84;;;3.40;84.11
9009;BME280;62813;51.424;6.762;2023-01-27T03:21:45;102167.59;;;3.42;84.13
9009;BME280;62813;51.424;6.762;2023-01-27T03:24:16;102173.59;;;3.42;84.46
9009;BME280;62813;51.424;6.762;2023-01-27T03:26:43;102172.72;;;3.42;84.53
9009;BME280;62813;51.424;6.762;2023-01-27T03:29:09;102160.69;;;3.36;84.86
9009;BME280;62813;51.424;6.762;2023-01-27T03:31:54;102177.78;;;3.37;84.96
9009;BME280;62813;51.424;6.762;2023-01-27T03:34:21;102174.38;;;3.37;85.22
9009;BME280;62813;51.424;6.762;2023-01-27T03:36:47;102169.22;;;3.32;85.71
9009;BME280;62813;51.424;6.762;2023-01-27T03:39:32;102174.34;;;3.32;86.34
9009;BME280;62813;51.424;6.762;2023-01-27T03:42:17;102184.59;;;3.32;86.21
9009;BME280;62813;51.424;6.762;2023-01-27T03:45:03;102181.13;;;3.30;86.70
9009;BME280;62813;51.424;6.762;2023-01-27T03:47:48;102176.00;;;3.30;87.04
9009;BME280;62813;51.424;6.762;2023-01-27T03:50:14;102181.97;;;3.26;87.41
9009;BME280;62813;51.424;6.762;2023-01-27T03:52:49;102180.25;;;3.25;87.47
9009;BME280;62813;51.424;6.762;2023-01-27T03:55:30;102179.41;;;3.28;87.63
9009;BME280;62813;51.424;6.762;2023-01-27T03:57:56;102181.09;;;3.24;88.28
9009;BME280;62813;51.424;6.762;2023-01-27T04:00:31;102181.97;;;3.28;88.00
9009;BME280;62813;51.424;6.762;2023-01-27T04:02:58;102183.69;;;3.27;88.24
9009;BME280;62813;51.424;6.762;2023-01-27T04:05:43;102193.97;;;3.30;88.12
9009;BME280;62813;51.424;6.762;2023-01-27T04:08:28;102187.97;;;3.30;88.46
9009;BME280;62813;51.424;6.762;2023-01-27T04:11:01;102177.63;;;3.24;88.99
9009;BME280;62813;51.424;6.762;2023-01-27T04:13:46;102184.44;;;3.20;89.55
9009;BME280;62813;51.424;6.762;2023-01-27T04:16:12;102186.16;;;3.21;89.76
9009;BME280;62813;51.424;6.762;2023-01-27T04:18:39;102187.00;;;3.20;89.41
9009;BME280;62813;51.424;6.762;2023-01-27T04:21:05;102187.84;;;3.19;90.03
9009;BME280;62813;51.424;6.762;2023-01-27T04:23:32;102192.06;;;3.15;90.23
9009;BME280;62813;51.424;6.762;2023-01-27T04:25:58;102186.16;;;3.21;90.17
9009;BME280;62813;51.424;6.762;2023-01-27T04:28:25;102177.63;;;3.22;89.98
9009;BME280;62813;51.424;6.762;2023-01-27T04:31:09;102184.44;;;3.20;90.32
9009;BME280;62813;51.424;6.762;2023-01-27T04:33:36;102176.75;;;3.22;90.18
9009;BME280;62813;51.424;6.762;2023-01-27T04:36:02;102175.88;;;3.18;90.47
9009;BME280;62813;51.424;6.762;2023-01-27T04:38:29;102180.94;;;3.15;91.12
9009;BME280;62813;51.424;6.762;2023-01-27T04:40:56;102186.94;;;3.15;90.98
9009;BME280;62813;51.424;6.762;2023-01-27T04:43:22;102187.78;;;3.14;90.78
9009;BME280;62813;51.424;6.762;2023-01-27T04:45:49;102192.03;;;3.11;91.30
9009;BME280;62813;51.424;6.762;2023-01-27T04:48:15;102192.03;;;3.11;91.33
9009;BME280;62813;51.424;6.762;2023-01-27T04:50:42;102186.06;;;3.12;91.13
9009;BME280;62813;51.424;6.762;2023-01-27T04:53:08;102191.13;;;3.09;91.16
9009;BME280;62813;51.424;6.762;2023-01-27T04:55:35;102191.09;;;3.06;91.19
9009;BME280;62813;51.424;6.762;2023-01-27T04:58:03;102196.22;;;3.04;91.56
9009;BME280;62813;51.424;6.762;2023-01-27T05:00:30;102187.69;;;3.05;91.44
9009;BME280;62813;51.424;6.762;2023-01-27T05:02:57;102197.09;;;3.06;91.39
9009;BME280;62813;51.424;6.762;2023-01-27T05:05:23;102191.97;;;3.08;91.11
9009;BME280;62813;51.424;6.762;2023-01-27T05:07:50;102199.66;;;3.05;91.47
9009;BME280;62813;51.424;6.762;2023-01-27T05:10:16;102202.22;;;3.05;91.50
9009;BME280;62813;51.424;6.762;2023-01-27T05:12:43;102195.38;;;3.07;91.28
9009;BME280;62813;51.424;6.762;2023-01-27T05:15:10;102199.66;;;3.06;91.31
9009;BME280;62813;51.424;6.762;2023-01-27T05:17:37;102199.69;;;3.09;91.16
9009;BME280;62813;51.424;6.762;2023-01-27T05:20:04;102205.66;;;3.07;91.33
9009;BME280;62813;51.424;6.762;2023-01-27T05:22:30;102196.25;;;3.07;91.33
9009;BME280;62813;51.424;6.762;2023-01-27T05:24:57;102199.66;;;3.05;91.60
9009;BME280;62813;51.424;6.762;2023-01-27T05:27:23;102210.84;;;3.11;92.15
9009;BME280;62813;51.424;6.762;2023-01-27T05:29:50;102207.59;;;3.25;92.54
9009;BME280;62813;51.424;6.762;2023-01-27T05:32:16;102201.72;;;3.32;91.46
9009;BME280;62813;51.424;6.762;2023-01-27T05:34:43;102207.81;;;3.41;91.61
9009;BME280;62813;51.424;6.762;2023-01-27T05:37:09;102219.94;;;3.53;91.63
9009;BME280;62813;51.424;6.762;2023-01-27T05:39:36;102218.22;;;3.54;90.66
9009;BME280;62813;51.424;6.762;2023-01-27T05:42:03;102216.59;;;3.60;90.86
9009;BME280;62813;51.424;6.762;2023-01-27T05:44:29;102221.66;;;3.56;89.89
9009;BME280;62813;51.424;6.762;2023-01-27T05:46:56;102219.09;;;3.59;90.01
9009;BME280;62813;51.424;6.762;2023-01-27T05:49:22;102227.63;;;3.55;90.17
9009;BME280;62813;51.424;6.762;2023-01-27T05:51:49;102220.00;;;3.61;90.38
9009;BME280;62813;51.424;6.762;2023-01-27T05:54:15;102219.22;;;3.68;89.95
9009;BME280;62813;51.424;6.762;2023-01-27T05:56:42;102216.59;;;3.62;89.51
9009;BME280;62813;51.424;6.762;2023-01-27T05:59:09;102224.31;;;3.65;90.05
9009;BME280;62813;51.424;6.762;2023-01-27T06:01:36;102216.66;;;3.68;89.81
9009;BME280;62813;51.424;6.762;2023-01-27T06:04:04;102220.09;;;3.67;88.89
9009;BME280;62813;51.424;6.762;2023-01-27T06:06:32;102217.53;;;3.68;89.46
9009;BME280;62813;51.424;6.762;2023-01-27T06:08:59;102220.97;;;3.72;89.54
9009;BME280;62813;51.424;6.762;2023-01-27T06:11:26;102222.75;;;3.76;89.38
9009;BME280;62813;51.424;6.762;2023-01-27T06:13:53;102215.84;;;3.72;88.93
9009;BME280;62813;51.424;6.762;2023-01-27T06:16:21;102220.03;;;3.62;88.66
9009;BME280;62813;51.424;6.762;2023-01-27T06:18:48;102218.22;;;3.55;89.60
9009;BME280;62813;51.424;6.762;2023-01-27T06:21:15;102215.66;;;3.57;89.58
9009;BME280;62813;51.424;6.762;2023-01-27T06:23:42;102222.44;;;3.52;89.49
9009;BME280;62813;51.424;6.762;2023-01-27T06:26:14;102223.28;;;3.48;89.90
9009;BME280;62813;51.424;6.762;2023-01-27T06:28:42;102221.53;;;3.45;89.87
9009;BME280;62813;51.424;6.762;2023-01-27T06:31:19;102221.53;;;3.45;89.97
9009;BME280;62813;51.424;6.762;2023-01-27T06:33:48;102232.69;;;3.45;89.85
9009;BME280;62813;51.424;6.762;2023-01-27T06:36:17;102242.09;;;3.45;89.92
9009;BME280;62813;51.424;6.762;2023-01-27T06:38:44;102247.22;;;3.47;89.53
9009;BME280;62813;51.424;6.762;2023-01-27T06:41:11;102248.94;;;3.46;89.78
9009;BME280;62813;51.424;6.762;2023-01-27T06:43:37;102252.38;;;3.50;89.77
9009;BME280;62813;51.424;6.762;2023-01-27T06:46:04;102260.94;;;3.50;89.31
9009;BME280;62813;51.424;6.762;2023-01-27T06:48:31;102253.25;;;3.50;89.30
9009;BME280;62813;51.424;6.762;2023-01-27T06:50:58;102247.25;;;3.50;89.39
9009;BME280;62813;51.424;6.762;2023-01-27T06:53:25;102255.81;;;3.50;89.19
9009;BME280;62813;51.424;6.762;2023-01-27T06:55:59;102252.38;;;3.48;89.23
9009;BME280;62813;51.424;6.762;2023-01-27T06:58:26;102254.06;;;3.46;89.40
9009;BME280;62813;51.424;6.762;2023-01-27T07:00:53;102260.09;;;3.50;88.83
9009;BME280;62813;51.424;6.762;2023-01-27T07:03:20;102261.72;;;3.44;88.60
9009;BME280;62813;51.424;6.762;2023-01-27T07:05:47;102256.66;;;3.48;88.39
9009;BME280;62813;51.424;6.762;2023-01-27T07:08:14;102257.53;;;3.51;88.30
9009;BME280;62813;51.424;6.762;2023-01-27T07:10:41;102262.72;;;3.56;88.10
9009;BME280;62813;51.424;6.762;2023-01-27T07:13:10;102267.03;;;3.57;87.89
9009;BME280;62813;51.424;6.762;2023-01-27T07:15:37;102270.47;;;3.59;87.87
9009;BME280;62813;51.424;6.762;2023-01-27T07:18:04;102275.66;;;3.62;87.70
9009;BME280;62813;51.424;6.762;2023-01-27T07:20:31;102279.06;;;3.62;87.67
9009;BME280;62813;51.424;6.762;2023-01-27T07:23:01;102275.66;;;3.63;87.54
9009;BME280;62813;51.424;6.762;2023-01-27T07:25:30;102275.66;;;3.65;87.40
9009;BME280;62813;51.424;6.762;2023-01-27T07:27:57;102278.22;;;3.62;87.86
9009;BME280;62813;51.424;6.762;2023-01-27T07:30:25;102280.81;;;3.65;87.61
9009;BME280;62813;51.424;6.762;2023-01-27T07:32:52;102275.66;;;3.62;87.84
9009;BME280;62813;51.424;6.762;2023-01-27T07:35:21;102280.78;;;3.60;88.15
9009;BME280;62813;51.424;6.762;2023-01-27T07:37:48;102284.19;;;3.61;88.43
9009;BME280;62813;51.424;6.762;2023-01-27T07:40:15;102292.75;;;3.60;88.48
9009;BME280;62813;51.424;6.762;2023-01-27T07:42:42;102287.63;;;3.63;88.59
9009;BME280;62813;51.424;6.762;2023-01-27T07:45:09;102290.19;;;3.61;88.16
9009;BME280;62813;51.424;6.762;2023-01-27T07:47:36;102284.22;;;3.64;88.50
9009;BME280;62813;51.424;6.762;2023-01-27T07:50:03;102294.56;;;3.67;88.54
9009;BME280;62813;51.424;6.762;2023-01-27T07:52:30;102300.53;;;3.67;88.52
9009;BME280;62813;51.424;6.762;2023-01-27T07:54:56;102296.28;;;3.69;88.16
9009;BME280;62813;51.424;6.762;2023-01-27T07:57:23;102304.00;;;3.71;88.62
9009;BME280;62813;51.424;6.762;2023-01-27T07:59:50;102301.50;;;3.77;88.09
9009;BME280;62813;51.424;6.762;2023-01-27T08:02:23;102317.78;;;3.78;87.71
9009;BME280;62813;51.424;6.762;2023-01-27T08:04:51;102300.66;;;3.78;87.80
9009;BME280;62813;51.424;6.762;2023-01-27T08:07:19;102299.78;;;3.78;87.74
9009;BME280;62813;51.424;6.762;2023-01-27T08:09:46;102299.78;;;3.76;88.36
9009;BME280;62813;51.424;6.762;2023-01-27T08:12:13;102300.63;;;3.75;88.09
9009;BME280;62813;51.424;6.762;2023-01-27T08:14:39;102301.50;;;3.77;87.77
9009;BME280;62813;51.424;6.762;2023-01-27T08:17:06;102297.28;;;3.81;88.07
9009;BME280;62813;51.424;6.762;2023-01-27T08:19:32;102303.28;;;3.81;88.62
9009;BME280;62813;51.424;6.762;2023-01-27T08:21:59;102298.16;;;3.83;87.84
9009;BME280;62813;51.424;6.762;2023-01-27T08:24:25;102299.94;;;3.88;87.72
9009;BME280;62813;51.424;6.762;2023-01-27T08:26:52;102306.75;;;3.86;87.81
9009;BME280;62813;51.424;6.762;2023-01-27T08:29:19;102297.31;;;3.87;87.59
9009;BME280;62813;51.424;6.762;2023-01-27T08:31:45;102315.38;;;3.91;87.46
9009;BME280;62813;51.424;6.762;2023-01-27T08:34:12;102308.53;;;3.92;87.39
9009;BME280;62813;51.424;6.762;2023-01-27T08:36:44;102308.50;;;3.90;87.24
9009;BME280;62813;51.424;6.762;2023-01-27T08:39:11;102306.81;;;3.92;87.40
9009;BME280;62813;51.424;6.762;2023-01-27T08:41:37;102310.22;;;3.88;87.78
9009;BME280;62813;51.424;6.762;2023-01-27T08:44:04;102305.94;;;3.90;87.54
9009;BME280;62813;51.424;6.762;2023-01-27T08:46:31;102311.94;;;3.89;88.00
9009;BME280;62813;51.424;6.762;2023-01-27T08:49:00;102311.94;;;3.91;88.13
9009;BME280;62813;51.424;6.762;2023-01-27T08:51:27;102321.34;;;3.90;87.74
9009;BME280;62813;51.424;6.762;2023-01-27T08:53:54;102318.88;;;3.96;87.91
9009;BME280;62813;51.424;6.762;2023-01-27T08:56:20;102323.16;;;4.00;87.86
9009;BME280;62813;51.424;6.762;2023-01-27T08:58:47;102324.94;;;4.03;87.59
9009;BME280;62813;51.424;6.762;2023-01-27T09:01:14;102320.66;;;4.04;87.60
9009;BME280;62813;51.424;6.762;2023-01-27T09:03:41;102319.75;;;4.00;87.33
9009;BME280;62813;51.424;6.762;2023-01-27T09:06:10;102328.34;;;4.02;87.40
9009;BME280;62813;51.424;6.762;2023-01-27T09:08:37;102330.84;;;3.97;87.38
9009;BME280;62813;51.424;6.762;2023-01-27T09:11:09;102335.16;;;4.00;87.62
9009;BME280;62813;51.424;6.762;2023-01-27T09:13:36;102342.09;;;4.06;87.01
9009;BME280;62813;51.424;6.762;2023-01-27T09:16:03;102345.50;;;4.03;86.93
9009;BME280;62813;51.424;6.762;2023-01-27T09:18:30;102353.19;;;4.02;87.49
9009;BME280;62813;51.424;6.762;2023-01-27T09:20:56;102350.63;;;4.03;86.92
9009;BME280;62813;51.424;6.762;2023-01-27T09:23:23;102361.75;;;4.04;86.73
9009;BME280;62813;51.424;6.762;2023-01-27T09:25:50;102364.34;;;4.04;86.59
9009;BME280;62813;51.424;6.762;2023-01-27T09:28:16;102367.72;;;4.01;86.99
9009;BME280;62813;51.424;6.762;2023-01-27T09:30:44;102361.72;;;4.00;87.38
9009;BME280;62813;51.424;6.762;2023-01-27T09:33:14;102363.41;;;4.00;87.62
9009;BME280;62813;51.424;6.762;2023-01-27T09:35:45;102368.63;;;4.05;87.30
9009;BME280;62813;51.424;6.762;2023-01-27T09:38:15;102375.47;;;4.06;87.16
9009;BME280;62813;51.424;6.762;2023-01-27T09:41:13;102373.78;;;4.06;87.39
9009;BME280;62813;51.424;6.762;2023-01-27T09:49:38;102391.75;;;4.05;87.58
9009;BME280;62813;51.424;6.762;2023-01-27T09:52:27;102390.03;;;4.02;87.82
9009;BME280;62813;51.424;6.762;2023-01-27T09:55:25;102385.75;;;4.03;87.42
9009;BME280;62813;51.424;6.762;2023-01-27T09:58:21;102390.88;;;4.03;87.38
9009;BME280;62813;51.424;6.762;2023-01-27T10:20:42;102385.88;;;4.15;87.43
9009;BME280;62813;51.424;6.762;2023-01-27T10:26:41;102386.72;;;4.15;87.61
9009;BME280;62813;51.424;6.762;2023-01-27T10:32:36;102378.22;;;4.19;87.72
9009;BME280;62813;51.424;6.762;2023-01-27T10:37:51;102380.00;;;4.26;87.77
9009;BME280;62813;51.424;6.762;2023-01-27T10:45:49;102379.16;;;4.26;87.42
9009;BME280;62813;51.424;6.762;2023-01-27T10:48:40;102384.28;;;4.24;87.32
9009;BME280;62813;51.424;6.762;2023-01-27T10:51:13;102377.44;;;4.25;87.39
9009;BME280;62813;51.424;6.762;2023-01-27T10:53:53;102381.72;;;4.27;87.48
9009;BME280;62813;51.424;6.762;2023-01-27T10:59:42;102387.78;;;4.31;87.40
9009;BME280;62813;51.424;6.762;2023-01-27T11:02:45;102381.81;;;4.34;87.20
9009;BME280;62813;51.424;6.762;2023-01-27T11:05:29;102376.66;;;4.34;87.50
9009;BME280;62813;51.424;6.762;2023-01-27T11:08:02;102376.59;;;4.29;87.11
9009;BME280;62813;51.424;6.762;2023-01-27T11:10:39;102377.53;;;4.34;86.98
9009;BME280;62813;51.424;6.762;2023-01-27T11:13:29;102373.25;;;4.35;86.68
9009;BME280;62813;51.424;6.762;2023-01-27T11:15:57;102380.09;;;4.33;86.71
9009;BME280;62813;51.424;6.762;2023-01-27T11:18:29;102365.53;;;4.35;86.50
9009;BME280;62813;51.424;6.762;2023-01-27T11:21:02;102368.09;;;4.33;86.48
9009;BME280;62813;51.424;6.762;2023-01-27T11:23:32;102363.00;;;4.39;86.09
9009;BME280;62813;51.424;6.762;2023-01-27T11:37:20;102374.09;;;4.35;85.83
9009;BME280;62813;51.424;6.762;2023-01-27T11:39:47;102367.22;;;4.31;85.58
9009;BME280;62813;51.424;6.762;2023-01-27T11:42:14;102362.09;;;4.33;85.54
9009;BME280;62813;51.424;6.762;2023-01-27T11:44:42;102361.25;;;4.34;85.63
9009;BME280;62813;51.424;6.762;2023-01-27T11:47:20;102368.06;;;4.30;85.17
9009;BME280;62813;51.424;6.762;2023-01-27T11:49:50;102361.28;;;4.37;85.41
9009;BME280;62813;51.424;6.762;2023-01-27T11:52:20;102359.59;;;4.40;84.99
9009;BME280;62813;51.424;6.762;2023-01-27T11:54:52;102349.31;;;4.43;84.74
9009;BME280;62813;51.424;6.762;2023-01-27T11:57:24;102349.38;;;4.45;84.44
9009;BME280;62813;51.424;6.762;2023-01-27T11:59:56;102343.38;;;4.46;84.27
9009;BME280;62813;51.424;6.762;2023-01-27T12:02:43;102334.88;;;4.51;83.79
9009;BME280;62813;51.424;6.762;2023-01-27T12:05:18;102336.59;;;4.55;83.95
9009;BME280;62813;51.424;6.762;2023-01-27T12:08:00;102334.09;;;4.63;83.19
9009;BME280;62813;51.424;6.762;2023-01-27T12:10:40;102336.66;;;4.62;83.15
9009;BME280;62813;51.424;6.762;2023-01-27T12:13:18;102329.81;;;4.64;82.38
9009;BME280;62813;51.424;6.762;2023-01-27T12:15:50;102328.09;;;4.64;82.46
9009;BME280;62813;51.424;6.762;2023-01-27T12:18:19;102326.41;;;4.65;82.52
9009;BME280;62813;51.424;6.762;2023-01-27T12:20:48;102314.41;;;4.67;82.19
9009;BME280;62813;51.424;6.762;2023-01-27T12:23:45;102328.16;;;4.69;82.30
9009;BME280;62813;51.424;6.762;2023-01-27T12:26:14;102325.56;;;4.69;81.30
9009;BME280;62813;51.424;6.762;2023-01-27T12:28:46;102315.28;;;4.67;80.84
9009;BME280;62813;51.424;6.762;2023-01-27T12:33:55;102309.28;;;4.68;81.18
9009;BME280;62813;51.424;6.762;2023-01-27T12:36:23;102304.19;;;4.73;80.63
9009;BME280;62813;51.424;6.762;2023-01-27T12:38:53;102309.34;;;4.73;80.97
9009;BME280;62813;51.424;6.762;2023-01-27T12:41:25;102317.06;;;4.77;80.57
9009;BME280;62813;51.424;6.762;2023-01-27T12:44:38;102311.91;;;4.73;80.69
9009;BME280;62813;51.424;6.762;2023-01-27T12:47:35;102302.47;;;4.72;80.76
9009;BME280;62813;51.424;6.762;2023-01-27T12:50:23;102314.47;;;4.73;80.64
9009;BME280;62813;51.424;6.762;2023-01-27T12:52:54;102308.47;;;4.77;80.29
9009;BME280;62813;51.424;6.762;2023-01-27T12:55:30;102309.34;;;4.74;80.05
9009;BME280;62813;51.424;6.762;2023-01-27T12:57:57;102313.63;;;4.75;80.37
9009;BME280;62813;51.424;6.762;2023-01-27T13:00:24;102314.47;;;4.76;80.34
9009;BME280;62813;51.424;6.762;2023-01-27T13:02:52;102316.19;;;4.77;79.90
9009;BME280;62813;51.424;6.762;2023-01-27T13:05:24;102317.06;;;4.77;79.83
9009;BME280;62813;51.424;6.762;2023-01-27T13:07:52;102315.34;;;4.78;80.42
9009;BME280;62813;51.424;6.762;2023-01-27T13:10:20;102315.38;;;4.81;80.04
9009;BME280;62813;51.424;6.762;2023-01-27T13:12:53;102317.13;;;4.83;79.98
9009;BME280;62813;51.424;6.762;2023-01-27T13:15:26;102309.44;;;4.91;79.76
9009;BME280;62813;51.424;6.762;2023-01-27T13:17:55;102315.41;;;4.84;80.08
9009;BME280;62813;51.424;6.762;2023-01-27T13:23:12;102323.91;;;4.77;79.83
9009;BME280;62813;51.424;6.762;2023-01-27T13:25:49;102327.34;;;4.76;80.34
9009;BME280;62813;51.424;6.762;2023-01-27T13:28:22;102329.91;;;4.76;80.51
9009;BME280;62813;51.424;6.762;2023-01-27T13:30:53;102329.06;;;4.77;80.31
9009;BME280;62813;51.424;6.762;2023-01-27T13:33:54;102326.53;;;4.80;80.87
9009;BME280;62813;51.424;6.762;2023-01-27T13:36:50;102332.53;;;4.80;80.44
9009;BME280;62813;51.424;6.762;2023-01-27T13:42:18;102335.13;;;4.83;79.01
9009;BME280;62813;51.424;6.762;2023-01-27T13:45:03;102334.25;;;4.80;77.65
9009;BME280;62813;51.424;6.762;2023-01-27T13:47:51;102335.97;;;4.82;77.04
9009;BME280;62813;51.424;6.762;2023-01-27T13:50:23;102342.84;;;4.80;76.44
9009;BME280;62813;51.424;6.762;2023-01-27T13:52:54;102335.97;;;4.79;76.26
9009;BME280;62813;51.424;6.762;2023-01-27T13:58:46;102350.53;;;4.79;76.70
9009;BME280;62813;51.424;6.762;2023-01-27T14:06:56;102345.41;;;4.82;77.25
9009;BME280;62813;51.424;6.762;2023-01-27T14:12:10;102350.53;;;4.79;77.98
9009;BME280;62813;51.424;6.762;2023-01-27T14:14:53;102355.69;;;4.79;78.47
9009;BME280;62813;51.424;6.762;2023-01-27T14:17:39;102346.22;;;4.78;78.70
9009;BME280;62813;51.424;6.762;2023-01-27T14:22:46;102356.47;;;4.72;78.80
9009;BME280;62813;51.424;6.762;2023-01-27T14:25:24;102351.34;;;4.73;78.63
9009;BME280;62813;51.424;6.762;2023-01-27T14:30:43;102354.78;;;4.74;78.99
9009;BME280;62813;51.424;6.762;2023-01-27T14:36:19;102357.34;;;4.74;78.68
9009;BME280;62813;51.424;6.762;2023-01-27T14:42:15;102356.44;;;4.69;78.87
9009;BME280;62813;51.424;6.762;2023-01-27T14:50:26;102364.09;;;4.63;78.62
9009;BME280;62813;51.424;6.762;2023-01-27T14:55:31;102369.22;;;4.60;78.83
9009;BME280;62813;51.424;6.762;2023-01-27T15:06:01;102368.28;;;4.53;78.47
9009;BME280;62813;51.424;6.762;2023-01-27T15:09:03;102377.72;;;4.52;78.80
9009;BME280;62813;51.424;6.762;2023-01-27T15:14:14;102377.66;;;4.46;78.72
9009;BME280;62813;51.424;6.762;2023-01-27T15:25:23;102391.38;;;4.45;79.30
9009;BME280;62813;51.424;6.762;2023-01-27T15:27:59;102390.44;;;4.42;79.07
9009;BME280;62813;51.424;6.762;2023-01-27T15:30:31;102402.47;;;4.43;79.33
9009;BME280;62813;51.424;6.762;2023-01-27T15:33:00;102397.34;;;4.44;79.44